createdAt,value
2018-07-04T00:00:22.495Z,4.83
2018-07-04T00:02:37.217Z,6.10
2018-07-04T00:04:52.095Z,4.87
2018-07-04T00:07:06.729Z,4.93
2018-07-04T00:09:21.523Z,5.00
2018-07-04T00:11:36.312Z,4.37
2018-07-04T00:13:50.932Z,4.93
2018-07-04T00:16:05.773Z,4.90
2018-07-04T00:18:20.635Z,4.17
2018-07-04T00:20:40.831Z,5.30
2018-07-04T00:22:55.630Z,4.33
2018-07-04T00:25:10.559Z,4.77
2018-07-04T00:27:25.342Z,5.20
2018-07-04T00:29:40.397Z,5.33
2018-07-04T00:31:55.206Z,5.07
2018-07-04T00:34:10.197Z,6.30
2018-07-04T00:36:24.980Z,5.90
2018-07-04T00:38:39.809Z,5.17
2018-07-04T00:40:54.699Z,4.90
2018-07-04T00:43:09.447Z,4.77
2018-07-04T00:45:24.252Z,4.83
2018-07-04T00:47:39.022Z,5.17
2018-07-04T00:49:53.689Z,5.13
2018-07-04T00:52:08.636Z,4.50
2018-07-04T00:54:23.752Z,4.20
2018-07-04T00:56:39.055Z,3.80
2018-07-04T00:58:54.033Z,4.10
2018-07-04T01:01:08.827Z,4.23
2018-07-04T01:03:23.704Z,4.23
2018-07-04T01:05:38.540Z,3.87
2018-07-04T01:07:53.414Z,3.90
2018-07-04T01:10:08.350Z,3.67
2018-07-04T01:12:23.020Z,4.50
2018-07-04T01:14:37.729Z,4.20
2018-07-04T01:16:52.539Z,4.20
2018-07-04T01:19:07.533Z,4.10
2018-07-04T01:21:22.393Z,4.60
2018-07-04T01:23:37.523Z,4.37
2018-07-04T01:25:52.468Z,4.57
2018-07-04T01:28:07.189Z,5.17
2018-07-04T01:30:22.170Z,5.50
2018-07-04T01:32:37.023Z,4.87
2018-07-04T01:34:52.836Z,4.70
2018-07-04T01:37:07.704Z,5.47
2018-07-04T01:39:22.566Z,4.80
2018-07-04T01:41:37.445Z,5.10
2018-07-04T01:43:52.182Z,5.23
2018-07-04T01:46:06.910Z,4.83
2018-07-04T01:48:21.700Z,5.07
2018-07-04T01:50:36.493Z,5.57
2018-07-04T01:52:51.199Z,5.00
2018-07-04T01:55:05.900Z,5.50
2018-07-04T01:57:20.514Z,4.80
2018-07-04T01:59:35.427Z,5.20
2018-07-04T02:01:50.379Z,5.00
2018-07-04T02:04:05.209Z,4.97
2018-07-04T02:06:20.110Z,5.00
2018-07-04T02:08:35.287Z,4.90
2018-07-04T02:10:49.887Z,4.40
2018-07-04T02:13:04.652Z,4.80
2018-07-04T02:15:19.291Z,4.60
2018-07-04T02:17:33.975Z,4.80
2018-07-04T02:19:48.983Z,4.50
2018-07-04T02:22:03.731Z,5.57
2018-07-04T02:24:18.436Z,5.97
2018-07-04T02:26:33.090Z,5.80
2018-07-04T02:28:47.805Z,6.10
2018-07-04T02:31:02.515Z,5.70
2018-07-04T02:33:17.188Z,5.27
2018-07-04T02:35:32.131Z,6.03
2018-07-04T02:37:46.976Z,6.20
2018-07-04T02:40:01.716Z,5.60
2018-07-04T02:42:16.429Z,5.30
2018-07-04T02:44:31.272Z,5.30
2018-07-04T02:46:46.080Z,5.23
2018-07-04T02:49:00.650Z,4.23
2018-07-04T02:51:15.378Z,5.40
2018-07-04T02:53:30.199Z,4.80
2018-07-04T02:55:44.949Z,5.13
2018-07-04T02:57:59.630Z,5.20
2018-07-04T03:00:14.377Z,5.43
2018-07-04T03:02:29.205Z,5.20
2018-07-04T03:04:44.845Z,4.87
2018-07-04T03:06:59.630Z,5.50
2018-07-04T03:09:14.355Z,4.90
2018-07-04T03:11:29.039Z,4.97
2018-07-04T03:13:43.659Z,4.83
2018-07-04T03:15:58.525Z,5.13
2018-07-04T03:18:13.367Z,5.37
2018-07-04T03:20:28.158Z,5.60
2018-07-04T03:22:42.990Z,5.37
2018-07-04T03:24:57.856Z,5.60
2018-07-04T03:27:12.712Z,5.73
2018-07-04T03:29:28.295Z,6.20
2018-07-04T03:31:43.164Z,5.87
2018-07-04T03:33:57.899Z,6.80
2018-07-04T03:36:12.610Z,4.93
2018-07-04T03:38:27.800Z,5.47
2018-07-04T03:40:42.547Z,5.47
2018-07-04T03:42:57.335Z,6.03
2018-07-04T03:45:12.071Z,6.17
2018-07-04T03:47:26.909Z,5.43
2018-07-04T03:49:41.916Z,6.30
2018-07-04T03:51:56.739Z,6.23
2018-07-04T03:54:11.706Z,6.67
2018-07-04T03:56:26.442Z,6.27
2018-07-04T03:58:41.121Z,6.00
2018-07-04T04:00:56.069Z,5.30
2018-07-04T04:03:11.080Z,5.57
2018-07-04T04:05:25.813Z,5.90
2018-07-04T04:07:40.655Z,5.93
2018-07-04T04:09:55.301Z,5.80
2018-07-04T04:12:10.018Z,5.67
2018-07-04T04:14:24.789Z,5.40
2018-07-04T04:16:39.270Z,6.40
2018-07-04T04:18:54.002Z,6.50
2018-07-04T04:21:08.598Z,6.20
2018-07-04T04:23:23.330Z,5.90
2018-07-04T04:25:32.138Z,6.03
2018-07-04T04:27:46.922Z,6.03
2018-07-04T04:30:01.774Z,6.37
2018-07-04T04:32:16.456Z,5.97
2018-07-04T04:34:31.139Z,6.50
2018-07-04T04:36:45.804Z,6.27
2018-07-04T04:39:00.843Z,6.70
2018-07-04T04:41:15.371Z,6.43
2018-07-04T04:43:30.010Z,6.07
2018-07-04T04:45:44.685Z,6.40
2018-07-04T04:47:59.315Z,5.90
2018-07-04T04:50:14.006Z,6.20
2018-07-04T04:52:29.477Z,5.97
2018-07-04T04:54:44.111Z,6.03
2018-07-04T04:56:58.707Z,6.60
2018-07-04T04:59:13.437Z,6.33
2018-07-04T05:01:28.147Z,6.40
2018-07-04T05:03:42.951Z,7.10
2018-07-04T05:05:57.838Z,6.90
2018-07-04T05:08:12.624Z,7.30
2018-07-04T05:10:27.217Z,7.27
2018-07-04T05:12:42.011Z,7.53
2018-07-04T05:14:56.976Z,7.53
2018-07-04T05:17:11.586Z,8.23
2018-07-04T05:19:26.347Z,7.83
2018-07-04T05:21:41.053Z,7.67
2018-07-04T05:23:55.737Z,8.17
2018-07-04T05:26:10.412Z,7.00
2018-07-04T05:28:25.157Z,7.53
2018-07-04T05:30:40.081Z,7.77
2018-07-04T05:32:54.791Z,7.30
2018-07-04T05:35:09.478Z,7.33
2018-07-04T05:37:24.395Z,7.93
2018-07-04T05:39:33.029Z,7.47
2018-07-04T05:41:48.164Z,7.30
2018-07-04T05:44:03.032Z,7.80
2018-07-04T05:46:17.781Z,8.10
2018-07-04T05:48:32.615Z,8.30
2018-07-04T05:50:47.580Z,7.43
2018-07-04T05:53:02.314Z,7.53
2018-07-04T05:55:17.193Z,8.03
2018-07-04T05:57:32.149Z,7.53
2018-07-04T05:59:46.970Z,8.10
2018-07-04T06:02:01.727Z,7.80
2018-07-04T06:04:16.488Z,7.20
2018-07-04T06:06:31.217Z,7.20
2018-07-04T06:08:46.011Z,7.13
2018-07-04T06:11:00.923Z,7.43
2018-07-04T06:13:16.032Z,7.00
2018-07-04T06:15:30.866Z,7.17
2018-07-04T06:17:46.027Z,7.20
2018-07-04T06:20:00.639Z,7.37
2018-07-04T06:22:15.308Z,7.37
2018-07-04T06:24:24.046Z,6.60
2018-07-04T06:26:38.859Z,6.80
2018-07-04T06:28:53.620Z,6.50
2018-07-04T06:31:08.234Z,6.77
2018-07-04T06:33:22.976Z,6.43
2018-07-04T06:35:37.752Z,6.60
2018-07-04T06:37:41.472Z,6.50
2018-07-04T06:39:43.821Z,6.03
2018-07-04T06:41:46.204Z,6.27
2018-07-04T06:43:48.563Z,5.90
2018-07-04T06:45:51.032Z,6.17
2018-07-04T06:47:53.486Z,6.23
2018-07-04T06:49:55.872Z,5.87
2018-07-04T06:51:58.240Z,5.80
2018-07-04T06:54:00.638Z,5.63
2018-07-04T06:56:03.148Z,6.27
2018-07-04T06:58:05.512Z,5.83
2018-07-04T07:00:07.871Z,5.50
2018-07-04T07:02:16.581Z,5.97
2018-07-04T07:04:31.518Z,5.00
2018-07-04T07:06:46.368Z,5.13
2018-07-04T07:09:01.057Z,5.90
2018-07-04T07:11:15.835Z,5.60
2018-07-04T07:13:30.403Z,5.40
2018-07-04T07:15:45.048Z,5.73
2018-07-04T07:17:59.960Z,5.45
2018-07-04T07:20:14.764Z,5.12
2018-07-04T07:22:29.439Z,4.70
2018-07-04T07:24:44.137Z,4.53
2018-07-04T07:26:58.947Z,5.30
2018-07-04T07:29:13.776Z,4.77
2018-07-04T07:31:28.470Z,4.50
2018-07-04T07:33:43.140Z,4.90
2018-07-04T07:35:57.789Z,5.03
2018-07-04T07:38:12.451Z,4.60
2018-07-04T07:40:26.960Z,4.70
2018-07-04T07:42:41.551Z,4.73
2018-07-04T07:44:56.076Z,4.40
2018-07-04T07:47:10.988Z,4.63
2018-07-04T07:49:25.796Z,4.55
2018-07-04T07:51:40.781Z,4.90
2018-07-04T07:53:55.477Z,4.67
2018-07-04T07:56:10.082Z,4.60
2018-07-04T07:58:24.796Z,4.60
2018-07-04T08:00:39.560Z,4.47
2018-07-04T08:02:54.949Z,3.95
2018-07-04T08:05:10.150Z,3.77
2018-07-04T08:07:24.956Z,4.40
2018-07-04T08:09:39.636Z,3.70
2018-07-04T08:11:54.347Z,3.35
2018-07-04T08:14:08.972Z,3.10
2018-07-04T08:16:23.756Z,3.17
2018-07-04T08:18:38.373Z,3.52
2018-07-04T08:20:53.007Z,3.27
2018-07-04T08:23:07.620Z,2.70
2018-07-04T08:25:22.296Z,2.60
2018-07-04T08:27:36.960Z,2.37
2018-07-04T08:29:51.836Z,2.58
2018-07-04T08:32:06.665Z,2.30
2018-07-04T08:34:21.347Z,2.40
2018-07-04T08:36:35.888Z,2.42
2018-07-04T08:38:50.628Z,2.50
2018-07-04T08:41:05.292Z,2.67
2018-07-04T08:43:20.155Z,2.52
2018-07-04T08:45:34.964Z,2.83
2018-07-04T08:47:49.588Z,2.30
2018-07-04T08:50:04.432Z,2.75
2018-07-04T08:52:19.160Z,2.15
2018-07-04T08:54:33.914Z,1.80
2018-07-04T08:56:48.719Z,1.87
2018-07-04T08:59:03.535Z,2.30
2018-07-04T09:01:18.536Z,1.90
2018-07-04T09:03:33.220Z,1.85
2018-07-04T09:05:47.859Z,1.98
2018-07-04T09:08:02.469Z,2.33
2018-07-04T09:10:17.331Z,2.22
2018-07-04T09:12:32.007Z,2.30
2018-07-04T09:14:46.767Z,2.12
2018-07-04T09:17:01.364Z,2.60
2018-07-04T09:19:16.092Z,2.35
2018-07-04T09:21:31.489Z,2.50
2018-07-04T09:23:46.090Z,2.50
2018-07-04T09:26:00.658Z,2.60
2018-07-04T09:28:15.292Z,2.83
2018-07-04T09:30:30.026Z,2.45
2018-07-04T09:32:44.766Z,2.52
2018-07-04T09:34:59.473Z,2.70
2018-07-04T09:37:14.282Z,2.80
2018-07-04T09:39:29.038Z,2.70
2018-07-04T09:41:43.704Z,2.55
2018-07-04T09:43:58.418Z,2.60
2018-07-04T09:46:13.225Z,2.70
2018-07-04T09:48:27.800Z,2.60
2018-07-04T09:50:42.416Z,2.65
2018-07-04T09:52:58.087Z,2.67
2018-07-04T09:55:12.826Z,2.55
2018-07-04T09:57:27.396Z,2.50
2018-07-04T09:59:42.655Z,2.35
2018-07-04T10:01:57.492Z,2.77
2018-07-04T10:04:12.143Z,2.50
2018-07-04T10:06:26.731Z,2.75
2018-07-04T10:08:41.335Z,2.72
2018-07-04T10:10:55.920Z,2.40
2018-07-04T10:13:10.767Z,2.70
2018-07-04T10:15:25.642Z,2.30
2018-07-04T10:17:40.518Z,2.60
2018-07-04T10:19:55.247Z,2.72
2018-07-04T10:22:09.875Z,2.92
2018-07-04T10:24:24.444Z,2.30
2018-07-04T10:26:39.386Z,2.40
2018-07-04T10:28:54.184Z,2.27
2018-07-04T10:31:08.765Z,2.12
2018-07-04T10:33:23.512Z,2.65
2018-07-04T10:35:38.247Z,2.10
2018-07-04T10:37:52.898Z,2.02
2018-07-04T10:40:07.634Z,1.90
2018-07-04T10:42:22.216Z,2.27
2018-07-04T10:44:37.240Z,2.55
2018-07-04T10:46:51.767Z,2.12
2018-07-04T10:49:00.419Z,2.65
2018-07-04T10:51:15.299Z,2.35
2018-07-04T10:53:29.954Z,2.02
2018-07-04T10:55:44.612Z,2.00
2018-07-04T10:57:59.192Z,2.15
2018-07-04T11:00:13.967Z,1.70
2018-07-04T11:02:28.663Z,1.90
2018-07-04T11:04:43.491Z,1.90
2018-07-04T11:06:58.322Z,1.72
2018-07-04T11:09:12.934Z,2.00
2018-07-04T11:11:27.772Z,1.90
2018-07-04T11:13:42.593Z,1.90
2018-07-04T11:15:57.555Z,1.87
2018-07-04T11:18:12.293Z,1.98
2018-07-04T11:20:27.133Z,2.20
2018-07-04T11:22:41.987Z,1.80
2018-07-04T11:24:56.657Z,1.90
2018-07-04T11:27:11.276Z,2.00
2018-07-04T11:29:26.018Z,1.75
2018-07-04T11:31:40.608Z,1.90
2018-07-04T11:33:49.382Z,2.27
2018-07-04T11:36:04.131Z,1.95
2018-07-04T11:38:18.869Z,2.08
2018-07-04T11:40:33.546Z,2.20
2018-07-04T11:42:48.269Z,2.10
2018-07-04T11:44:56.916Z,2.33
2018-07-04T11:46:59.435Z,2.30
2018-07-04T11:49:02.211Z,2.37
2018-07-04T11:51:04.633Z,2.20
2018-07-04T11:53:07.026Z,2.80
2018-07-04T11:55:09.400Z,2.27
2018-07-04T11:57:11.796Z,2.20
2018-07-04T11:59:14.226Z,2.27
2018-07-04T12:01:16.787Z,2.40
2018-07-04T12:03:21.752Z,2.52
2018-07-04T12:05:36.531Z,2.35
2018-07-04T12:07:38.943Z,2.10
2018-07-04T12:09:41.411Z,2.55
2018-07-04T12:11:43.839Z,1.80
2018-07-04T12:13:46.327Z,2.30
2018-07-04T12:15:49.849Z,1.65
2018-07-04T12:17:52.603Z,1.95
2018-07-04T12:19:55.213Z,2.27
2018-07-04T12:21:57.681Z,1.80
2018-07-04T12:24:00.137Z,1.85
2018-07-04T12:26:02.528Z,1.77
2018-07-04T12:28:05.245Z,1.82
2018-07-04T12:30:07.700Z,2.17
2018-07-04T12:32:10.091Z,1.93
2018-07-04T12:34:12.576Z,2.83
2018-07-04T12:36:14.994Z,3.07
2018-07-04T12:38:17.573Z,2.90
2018-07-04T12:40:20.312Z,3.43
2018-07-04T12:42:22.730Z,3.53
2018-07-04T12:44:25.097Z,3.70
2018-07-04T12:46:27.983Z,4.20
2018-07-04T12:48:30.369Z,4.50
2018-07-04T12:50:33.567Z,5.03
2018-07-04T12:52:35.969Z,4.77
2018-07-04T12:54:43.773Z,4.20
2018-07-04T12:56:58.456Z,4.20
2018-07-04T12:59:13.453Z,4.80
2018-07-04T13:01:28.127Z,4.78
2018-07-04T13:03:42.865Z,4.80
2018-07-04T13:05:57.525Z,4.40
2018-07-04T13:08:12.406Z,5.57
2018-07-04T13:10:27.445Z,4.50
2018-07-04T13:12:42.491Z,5.00
2018-07-04T13:14:57.215Z,5.20
2018-07-04T13:17:11.864Z,5.33
2018-07-04T13:19:26.806Z,5.55
2018-07-04T13:21:42.620Z,5.77
2018-07-04T13:23:57.359Z,6.40
2018-07-04T13:26:11.959Z,5.60
2018-07-04T13:28:26.823Z,5.87
2018-07-04T13:30:41.634Z,4.97
2018-07-04T13:32:56.409Z,5.10
2018-07-04T13:35:11.145Z,4.80
2018-07-04T13:37:25.968Z,4.20
2018-07-04T13:39:40.813Z,3.77
2018-07-04T13:41:55.726Z,4.15
2018-07-04T13:44:04.547Z,3.90
2018-07-04T13:46:19.331Z,3.95
2018-07-04T13:48:34.127Z,3.52
2018-07-04T13:50:48.661Z,3.67
2018-07-04T13:53:03.268Z,3.70
2018-07-04T13:55:17.878Z,3.95
2018-07-04T13:57:32.624Z,4.15
2018-07-04T13:59:47.324Z,4.97
2018-07-04T14:02:02.037Z,3.35
2018-07-04T14:04:16.803Z,2.80
2018-07-04T14:06:31.434Z,2.80
2018-07-04T14:08:46.420Z,2.98
2018-07-04T14:11:01.134Z,2.55
2018-07-04T14:13:16.244Z,2.75
2018-07-04T14:15:31.007Z,2.90
2018-07-04T14:17:45.844Z,2.80
2018-07-04T14:20:00.748Z,2.55
2018-07-04T14:22:15.604Z,2.87
2018-07-04T14:24:30.307Z,3.10
2018-07-04T14:26:45.193Z,3.08
2018-07-04T14:29:00.313Z,2.80
2018-07-04T14:31:15.103Z,2.98
2018-07-04T14:33:29.744Z,3.08
2018-07-04T14:35:44.577Z,3.00
2018-07-04T14:37:59.236Z,2.98
2018-07-04T14:40:13.971Z,2.70
2018-07-04T14:42:28.910Z,2.90
2018-07-04T14:44:43.565Z,2.80
2018-07-04T14:46:58.388Z,2.50
2018-07-04T14:49:13.053Z,2.67
2018-07-04T14:51:27.733Z,3.08
2018-07-04T14:53:42.510Z,2.40
2018-07-04T14:55:57.179Z,3.05
2018-07-04T14:58:11.969Z,2.60
2018-07-04T15:00:26.681Z,2.85
2018-07-04T15:02:41.519Z,2.90
2018-07-04T15:04:56.226Z,2.58
2018-07-04T15:07:10.882Z,2.70
2018-07-04T15:09:25.627Z,2.52
2018-07-04T15:11:40.287Z,2.27
2018-07-04T15:13:54.982Z,2.30
2018-07-04T15:16:09.696Z,2.92
2018-07-04T15:18:24.976Z,2.52
2018-07-04T15:20:40.104Z,2.65
2018-07-04T15:22:54.834Z,3.17
2018-07-04T15:25:09.464Z,3.05
2018-07-04T15:27:24.299Z,3.20
2018-07-04T15:29:39.076Z,3.22
2018-07-04T15:31:53.797Z,2.40
2018-07-04T15:34:08.551Z,2.02
2018-07-04T15:36:23.336Z,2.50
2018-07-04T15:38:38.336Z,1.90
2018-07-04T15:40:53.342Z,2.10
2018-07-04T15:43:08.005Z,2.10
2018-07-04T15:45:22.648Z,2.10
2018-07-04T15:47:37.162Z,2.17
2018-07-04T15:49:51.852Z,2.37
2018-07-04T15:52:06.731Z,2.20
2018-07-04T15:54:21.640Z,2.50
2018-07-04T15:56:36.407Z,3.60
2018-07-04T15:58:51.434Z,2.65
2018-07-04T16:01:06.230Z,2.10
2018-07-04T16:03:21.068Z,2.62
2018-07-04T16:05:35.981Z,2.35
2018-07-04T16:07:50.916Z,2.50
2018-07-04T16:10:05.835Z,2.10
2018-07-04T16:12:20.737Z,2.10
2018-07-04T16:14:35.663Z,2.27
2018-07-04T16:16:50.672Z,2.17
2018-07-04T16:19:05.451Z,2.42
2018-07-04T16:21:20.369Z,2.15
2018-07-04T16:23:35.062Z,2.30
2018-07-04T16:25:49.993Z,2.20
2018-07-04T16:28:04.879Z,2.10
2018-07-04T16:30:19.653Z,2.40
2018-07-04T16:32:34.336Z,2.30
2018-07-04T16:34:49.060Z,2.50
2018-07-04T16:37:03.822Z,2.12
2018-07-04T16:39:18.494Z,2.37
2018-07-04T16:41:33.179Z,2.30
2018-07-04T16:43:47.889Z,2.17
2018-07-04T16:46:02.592Z,2.10
2018-07-04T16:48:17.470Z,2.47
2018-07-04T16:50:32.223Z,2.80
2018-07-04T16:52:47.017Z,2.90
2018-07-04T16:55:01.683Z,2.45
2018-07-04T16:57:16.453Z,2.62
2018-07-04T16:59:31.351Z,2.58
2018-07-04T17:01:46.208Z,2.35
2018-07-04T17:04:00.984Z,2.87
2018-07-04T17:06:16.181Z,2.30
2018-07-04T17:08:30.794Z,3.20
2018-07-04T17:10:46.418Z,2.90
2018-07-04T17:13:11.834Z,2.58
2018-07-04T17:15:26.929Z,2.60
2018-07-04T17:17:41.613Z,3.05
2018-07-04T17:19:56.418Z,3.12
2018-07-04T17:22:11.157Z,3.10
2018-07-04T17:24:26.203Z,3.52
2018-07-04T17:26:41.148Z,2.92
2018-07-04T17:28:56.089Z,2.90
2018-07-04T17:31:11.042Z,3.10
2018-07-04T17:33:25.967Z,3.37
2018-07-04T17:35:40.774Z,2.92
2018-07-04T17:37:55.521Z,3.37
2018-07-04T17:40:10.585Z,3.25
2018-07-04T17:42:25.454Z,2.95
2018-07-04T17:44:40.722Z,3.35
2018-07-04T17:46:55.483Z,3.47
2018-07-04T17:49:10.325Z,3.58
2018-07-04T17:51:24.956Z,3.62
2018-07-04T17:53:39.731Z,3.30
2018-07-04T17:55:54.386Z,3.50
2018-07-04T17:58:09.308Z,3.45
2018-07-04T18:00:24.122Z,3.70
2018-07-04T18:02:39.071Z,3.47
2018-07-04T18:04:53.953Z,3.17
2018-07-04T18:07:08.641Z,3.45
2018-07-04T18:09:23.395Z,3.67
2018-07-04T18:11:38.341Z,3.65
2018-07-04T18:13:53.597Z,3.67
2018-07-04T18:16:08.412Z,3.45
2018-07-04T18:18:23.292Z,3.80
2018-07-04T18:20:38.089Z,3.95
2018-07-04T18:22:52.931Z,4.17
2018-07-04T18:25:07.661Z,4.30
2018-07-04T18:27:22.419Z,4.58
2018-07-04T18:29:37.318Z,5.10
2018-07-04T18:31:52.337Z,3.87
2018-07-04T18:34:07.553Z,3.60
2018-07-04T18:36:22.377Z,3.87
2018-07-04T18:38:37.370Z,3.72
2018-07-04T18:40:52.459Z,3.70
2018-07-04T18:43:07.314Z,4.05
2018-07-04T18:45:22.374Z,3.60
2018-07-04T18:47:37.063Z,3.47
2018-07-04T18:49:51.964Z,3.85
2018-07-04T18:52:06.844Z,3.77
2018-07-04T18:54:21.801Z,3.77
2018-07-04T18:56:36.751Z,3.60
2018-07-04T18:58:52.147Z,4.20
2018-07-04T19:01:06.958Z,4.40
2018-07-04T19:03:21.836Z,4.22
2018-07-04T19:05:36.790Z,4.25
2018-07-04T19:07:45.754Z,4.03
2018-07-04T19:10:00.642Z,4.50
2018-07-04T19:12:15.730Z,3.77
2018-07-04T19:14:30.600Z,4.62
2018-07-04T19:16:45.362Z,4.47
2018-07-04T19:19:00.237Z,4.35
2018-07-04T19:21:15.245Z,4.33
2018-07-04T19:23:30.150Z,4.35
2018-07-04T19:25:45.279Z,4.60
2018-07-04T19:28:00.194Z,3.85
2018-07-04T19:30:15.065Z,4.33
2018-07-04T19:32:30.011Z,4.78
2018-07-04T19:34:44.585Z,5.15
2018-07-04T19:36:59.455Z,5.20
2018-07-04T19:39:15.178Z,6.60
2018-07-04T19:41:29.987Z,5.22
2018-07-04T19:43:44.852Z,4.30
2018-07-04T19:45:59.622Z,4.00
2018-07-04T19:48:14.552Z,3.98
2018-07-04T19:50:29.671Z,4.47
2018-07-04T19:52:44.467Z,4.30
2018-07-04T19:54:59.916Z,5.07
2018-07-04T19:57:14.810Z,4.40
2018-07-04T19:59:29.382Z,5.17
2018-07-04T20:01:44.150Z,4.65
2018-07-04T20:03:59.042Z,4.67
2018-07-04T20:06:14.024Z,4.97
2018-07-04T20:08:28.817Z,4.90
2018-07-04T20:10:43.632Z,5.63
2018-07-04T20:12:58.547Z,5.30
2018-07-04T20:15:13.335Z,4.80
2018-07-04T20:17:28.049Z,5.20
2018-07-04T20:19:42.843Z,5.03
2018-07-04T20:21:57.679Z,4.80
2018-07-04T20:24:12.580Z,4.93
2018-07-04T20:26:27.547Z,4.70
2018-07-04T20:28:42.561Z,4.80
2018-07-04T20:30:57.350Z,4.90
2018-07-04T20:33:12.248Z,4.95
2018-07-04T20:35:27.210Z,5.23
2018-07-04T20:37:42.016Z,5.93
2018-07-04T20:39:56.895Z,6.70
2018-07-04T20:42:11.986Z,6.87
2018-07-04T20:44:26.837Z,6.67
2018-07-04T20:46:42.144Z,7.73
2018-07-04T20:48:57.017Z,7.17
2018-07-04T20:51:12.070Z,7.20
2018-07-04T20:53:26.759Z,6.22
2018-07-04T20:55:41.781Z,6.00
2018-07-04T20:57:56.497Z,6.00
2018-07-04T21:00:11.474Z,5.70
2018-07-04T21:02:26.382Z,6.17
2018-07-04T21:04:41.197Z,7.43
2018-07-04T21:06:55.818Z,6.80
2018-07-04T21:09:10.262Z,4.63
2018-07-04T21:11:25.075Z,6.27
2018-07-04T21:13:39.966Z,5.47
2018-07-04T21:15:54.623Z,4.83
2018-07-04T21:18:09.410Z,5.70
2018-07-04T21:20:24.527Z,6.80
2018-07-04T21:22:39.152Z,6.67
2018-07-04T21:24:53.809Z,7.10
2018-07-04T21:27:08.808Z,6.23
2018-07-04T21:29:23.512Z,5.87
2018-07-04T21:31:38.385Z,6.50
2018-07-04T21:33:53.279Z,5.40
2018-07-04T21:36:08.078Z,5.50
2018-07-04T21:38:23.074Z,5.60
2018-07-04T21:40:37.920Z,5.77
2018-07-04T21:42:52.797Z,5.97
2018-07-04T21:45:08.046Z,5.80
2018-07-04T21:47:22.716Z,5.90
2018-07-04T21:49:37.580Z,6.00
2018-07-04T21:51:52.398Z,5.80
2018-07-04T21:54:07.293Z,6.17
2018-07-04T21:56:22.075Z,6.40
2018-07-04T21:58:36.877Z,6.40
2018-07-04T22:00:51.798Z,6.30
2018-07-04T22:03:06.560Z,5.90
2018-07-04T22:05:21.269Z,4.83
2018-07-04T22:07:36.113Z,4.50
2018-07-04T22:09:50.965Z,4.40
2018-07-04T22:12:05.935Z,6.10
2018-07-04T22:14:14.797Z,6.97
2018-07-04T22:16:29.617Z,6.77
2018-07-04T22:18:44.405Z,7.40
2018-07-04T22:20:59.339Z,5.93
2018-07-04T22:23:08.300Z,5.77
2018-07-04T22:25:23.023Z,5.80
2018-07-04T22:27:38.189Z,6.70
2018-07-04T22:29:53.387Z,5.70
2018-07-04T22:32:08.226Z,5.40
2018-07-04T22:34:22.919Z,4.93
2018-07-04T22:36:37.777Z,5.20
2018-07-04T22:38:52.439Z,5.70
2018-07-04T22:41:07.193Z,6.63
2018-07-04T22:43:21.957Z,6.33
2018-07-04T22:45:36.798Z,5.03
2018-07-04T22:47:45.669Z,6.33
2018-07-04T22:50:00.548Z,5.67
2018-07-04T22:52:15.471Z,6.80
2018-07-04T22:54:30.249Z,6.53
2018-07-04T22:56:45.139Z,5.23
2018-07-04T22:59:00.128Z,5.00
2018-07-04T23:01:15.099Z,4.90
2018-07-04T23:03:30.068Z,5.50
2018-07-04T23:05:38.860Z,5.40
2018-07-04T23:07:53.840Z,5.67
2018-07-04T23:10:08.770Z,5.63
2018-07-04T23:12:23.563Z,5.53
2018-07-04T23:14:38.180Z,6.17
2018-07-04T23:16:53.042Z,6.70
2018-07-04T23:19:07.858Z,6.43
2018-07-04T23:21:16.554Z,6.30
2018-07-04T23:23:31.431Z,6.30
2018-07-04T23:25:46.303Z,5.67
2018-07-04T23:28:01.237Z,5.60
2018-07-04T23:30:16.820Z,5.17
2018-07-04T23:32:31.581Z,5.37
2018-07-04T23:34:46.752Z,5.20
2018-07-04T23:37:01.364Z,5.30
2018-07-04T23:39:16.035Z,5.33
2018-07-04T23:41:30.842Z,4.93
2018-07-04T23:43:45.648Z,4.63
2018-07-04T23:46:00.480Z,4.30
2018-07-04T23:48:15.362Z,4.33
2018-07-04T23:50:30.081Z,4.20
2018-07-04T23:52:44.996Z,4.03
2018-07-04T23:55:00.167Z,4.23
2018-07-04T23:57:15.061Z,4.93
2018-07-04T23:59:29.985Z,5.10
